Time;durP1;ratioP1;P1;durP2;ratioP2;P2;SDS_P1;SDS_P2;PMS_P1;PMS_P2;Temp;Humidity;BMP_temperature;BMP_pressure;BME280_temperature;BME280_humidity;BME280_pressure;Samples;Min_cycle;Max_cycle;Signal;HPM_P1;HPM_P2
2022/12/10 00:01:15;;;;;;;5.30;2.78;;;17.60;1.00;;;;;;4807499;29;20420;-36
2022/12/10 00:03:43;;;;;;;3.95;2.80;;;17.60;1.00;;;;;;4790752;29;20073;-41
2022/12/10 00:06:15;;;;;;;5.50;3.08;;;17.60;1.00;;;;;;4807320;29;20117;-42
2022/12/10 00:08:42;;;;;;;4.50;2.95;;;17.50;1.00;;;;;;4807493;29;20074;-39
2022/12/10 00:11:12;;;;;;;4.85;2.90;;;17.50;1.00;;;;;;4807205;29;20117;-36
2022/12/10 00:13:39;;;;;;;4.70;3.38;;;17.40;1.00;;;;;;4807019;29;20047;-38
2022/12/10 00:16:09;;;;;;;4.20;2.60;;;17.40;1.00;;;;;;4807219;29;20047;-39
2022/12/10 00:18:37;;;;;;;5.15;3.08;;;17.40;1.00;;;;;;4791441;29;20137;-35
2022/12/10 00:21:07;;;;;;;5.00;3.00;;;17.30;1.00;;;;;;4805879;29;20137;-37
2022/12/10 00:23:35;;;;;;;5.07;2.88;;;17.30;1.00;;;;;;4806709;29;20510;-38
2022/12/10 00:26:11;;;;;;;5.57;2.85;;;17.30;1.00;;;;;;4806859;29;20492;-36
2022/12/10 00:28:39;;;;;;;4.35;3.33;;;17.20;1.00;;;;;;4790603;29;20066;-37
2022/12/10 00:31:09;;;;;;;4.90;3.10;;;17.20;1.00;;;;;;4806934;29;20047;-36
2022/12/10 00:33:37;;;;;;;6.03;3.15;;;17.10;1.00;;;;;;4805339;29;20488;-39
2022/12/10 00:36:09;;;;;;;5.05;3.15;;;17.10;1.00;;;;;;4806820;29;20423;-34
2022/12/10 00:38:37;;;;;;;5.18;3.83;;;17.10;1.00;;;;;;4806884;29;20579;-35
2022/12/10 00:41:04;;;;;;;5.72;3.63;;;17.00;1.00;;;;;;4806757;29;20068;-38
2022/12/10 00:43:33;;;;;;;5.32;2.92;;;17.00;1.00;;;;;;4790438;29;20503;-38
2022/12/10 00:46:00;;;;;;;4.68;3.25;;;16.90;1.00;;;;;;4806556;29;20043;-37
2022/12/10 00:48:27;;;;;;;4.75;3.03;;;16.90;1.00;;;;;;4806566;29;20082;-34
2022/12/10 00:51:08;;;;;;;5.00;3.30;;;16.90;1.00;;;;;;4806812;29;20046;-38
2022/12/10 00:53:38;;;;;;;5.75;3.00;;;16.80;1.00;;;;;;4790195;29;20119;-38
2022/12/10 00:56:06;;;;;;;5.30;3.55;;;16.80;1.00;;;;;;4790335;29;20066;-36
2022/12/10 00:58:34;;;;;;;3.55;2.50;;;16.70;1.00;;;;;;4790350;29;20075;-36
2022/12/10 01:01:26;;;;;;;4.22;2.60;;;16.70;1.00;;;;;;4806406;29;20500;-37
2022/12/10 01:03:56;;;;;;;5.30;3.10;;;16.70;1.00;;;;;;4803903;29;20062;-36
2022/12/10 01:06:30;;;;;;;5.00;3.28;;;16.60;1.00;;;;;;4806332;29;20299;-38
2022/12/10 01:08:59;;;;;;;4.68;2.67;;;16.60;1.00;;;;;;4806376;29;20046;-39
2022/12/10 01:11:33;;;;;;;4.90;3.50;;;16.60;1.00;;;;;;4806167;29;20055;-35
2022/12/10 01:14:00;;;;;;;4.82;2.90;;;16.50;1.00;;;;;;4806155;29;20694;-40
2022/12/10 01:16:27;;;;;;;4.88;3.30;;;16.50;1.00;;;;;;4806578;29;20051;-37
2022/12/10 01:18:56;;;;;;;5.28;3.63;;;16.50;1.00;;;;;;4804925;29;20678;-38
2022/12/10 01:21:24;;;;;;;4.28;3.10;;;16.40;1.00;;;;;;4789782;29;20059;-36
2022/12/10 01:23:53;;;;;;;5.45;3.63;;;16.40;1.00;;;;;;4789639;29;20602;-37
2022/12/10 01:26:22;;;;;;;4.03;2.95;;;16.40;1.00;;;;;;4806034;29;20072;-37
2022/12/10 01:28:51;;;;;;;5.30;3.55;;;16.40;1.00;;;;;;4804771;29;20556;-37
2022/12/10 01:31:29;;;;;;;4.80;3.30;;;16.30;1.00;;;;;;4789409;29;20054;-37
2022/12/10 01:33:58;;;;;;;4.65;3.15;;;16.30;1.00;;;;;;4789354;29;20465;-39
2022/12/10 01:36:29;;;;;;;5.35;3.53;;;16.30;1.00;;;;;;4805659;29;20435;-34
2022/12/10 01:38:56;;;;;;;5.30;3.50;;;16.20;1.00;;;;;;4789465;29;20150;-38
2022/12/10 01:41:27;;;;;;;5.05;3.25;;;16.20;1.00;;;;;;4805845;29;20055;-38
2022/12/10 01:44:16;;;;;;;5.32;3.50;;;16.20;1.00;;;;;;4805528;29;20081;-39
2022/12/10 01:46:49;;;;;;;6.03;4.07;;;16.20;1.00;;;;;;4770930;29;20093;-39
2022/12/10 01:49:40;;;;;;;6.05;3.80;;;16.10;1.00;;;;;;4806020;29;20055;-35
2022/12/10 01:52:11;;;;;;;6.60;3.95;;;16.10;1.00;;;;;;4805804;29;20345;-37
2022/12/10 01:54:42;;;;;;;5.43;3.30;;;16.00;1.00;;;;;;4804262;29;20120;-33
2022/12/10 01:57:16;;;;;;;6.18;3.83;;;16.00;1.00;;;;;;4805409;29;20161;-35
2022/12/10 01:59:45;;;;;;;5.93;3.55;;;16.00;1.00;;;;;;4789152;29;20519;-35
2022/12/10 02:02:12;;;;;;;6.53;4.07;;;16.00;1.00;;;;;;4804100;29;20053;-34
2022/12/10 02:04:53;;;;;;;5.53;3.55;;;15.90;1.00;;;;;;4805306;29;20051;-37
2022/12/10 02:07:38;;;;;;;5.75;3.20;;;15.90;1.00;;;;;;4805503;29;20043;-35
2022/12/10 02:10:14;;;;;;;5.03;3.88;;;15.90;1.00;;;;;;4805545;29;20411;-34
2022/12/10 02:12:53;;;;;;;5.18;3.83;;;15.80;1.00;;;;;;4803940;29;20051;-33
2022/12/10 02:15:26;;;;;;;5.22;3.65;;;15.80;1.00;;;;;;4805267;29;20119;-36
2022/12/10 02:17:58;;;;;;;5.10;3.72;;;15.80;1.00;;;;;;4789090;29;20273;-34
2022/12/10 02:20:36;;;;;;;5.82;3.55;;;15.80;1.00;;;;;;4788861;29;20365;-35
2022/12/10 02:23:29;;;;;;;7.00;4.13;;;15.80;1.00;;;;;;4803647;29;20059;-35
2022/12/10 02:26:14;;;;;;;6.03;4.03;;;15.70;1.00;;;;;;4803822;29;20614;-38
2022/12/10 02:28:54;;;;;;;5.55;3.30;;;15.70;1.00;;;;;;4788823;29;20503;-33
2022/12/10 02:31:26;;;;;;;5.70;3.83;;;15.70;1.00;;;;;;4805193;29;20476;-36
2022/12/10 02:33:58;;;;;;;5.20;3.83;;;15.60;1.00;;;;;;4788506;29;20191;-34
2022/12/10 02:36:30;;;;;;;6.20;3.85;;;15.60;1.00;;;;;;4788822;29;20058;-36
2022/12/10 02:38:59;;;;;;;5.63;4.03;;;15.60;1.00;;;;;;4803664;29;20146;-35
2022/12/10 02:41:33;;;;;;;4.72;3.50;;;15.50;1.00;;;;;;4788705;29;20103;-35
2022/12/10 02:44:05;;;;;;;7.63;3.95;;;15.50;1.00;;;;;;4773086;29;20081;-37
2022/12/10 02:46:34;;;;;;;5.15;3.15;;;15.50;1.00;;;;;;4788539;29;20043;-37
2022/12/10 02:49:05;;;;;;;4.93;3.63;;;15.50;1.00;;;;;;4788565;29;20051;-36
2022/12/10 02:51:34;;;;;;;4.85;3.28;;;15.40;1.00;;;;;;4788529;29;20055;-40
2022/12/10 02:54:06;;;;;;;6.03;3.95;;;15.40;1.00;;;;;;4804585;29;20412;-34
2022/12/10 02:56:44;;;;;;;3.67;2.90;;;15.40;1.00;;;;;;4788443;29;20054;-36
2022/12/10 02:59:31;;;;;;;4.57;2.80;;;15.40;1.00;;;;;;4773645;29;20074;-35
2022/12/10 03:02:15;;;;;;;4.90;3.20;;;15.40;1.00;;;;;;4788319;29;20065;-34
2022/12/10 03:05:00;;;;;;;4.43;3.20;;;15.40;1.00;;;;;;4804607;29;20142;-35
2022/12/10 03:07:49;;;;;;;4.70;2.80;;;15.30;1.00;;;;;;4804620;29;20047;-34
2022/12/10 03:10:34;;;;;;;3.38;2.92;;;15.30;1.00;;;;;;4804497;29;20568;-35
2022/12/10 03:13:07;;;;;;;3.75;2.53;;;15.30;1.00;;;;;;4804497;29;20101;-34
2022/12/10 03:15:37;;;;;;;4.30;2.80;;;15.20;1.00;;;;;;4804560;29;20137;-33
2022/12/10 03:18:05;;;;;;;3.25;2.33;;;15.20;1.00;;;;;;4804738;29;20120;-36
2022/12/10 03:20:36;;;;;;;3.70;2.63;;;15.20;1.00;;;;;;4788331;29;20482;-34
2022/12/10 03:23:07;;;;;;;3.38;2.47;;;15.30;1.00;;;;;;4804239;29;20153;-38
2022/12/10 03:25:35;;;;;;;3.08;2.33;;;15.30;1.00;;;;;;4804478;29;20051;-33
2022/12/10 03:28:01;;;;;;;4.57;2.95;;;15.40;1.00;;;;;;4804597;29;20282;-34
2022/12/10 03:30:31;;;;;;;2.40;1.85;;;15.50;1.00;;;;;;4804294;29;20493;-35
2022/12/10 03:32:59;;;;;;;3.38;2.20;;;15.60;1.00;;;;;;4804236;29;20047;-38
2022/12/10 03:35:27;;;;;;;3.03;1.90;;;15.70;1.00;;;;;;4804612;29;20419;-37
2022/12/10 03:37:53;;;;;;;3.50;2.00;;;15.80;1.00;;;;;;4804411;29;20503;-36
2022/12/10 03:40:25;;;;;;;3.08;1.95;;;15.90;1.00;;;;;;4804375;29;20050;-37
2022/12/10 03:42:51;;;;;;;3.72;2.25;;;15.90;1.00;;;;;;4804195;29;20039;-40
2022/12/10 03:45:19;;;;;;;3.88;2.25;;;16.00;1.00;;;;;;4804230;29;20051;-36
2022/12/10 03:47:46;;;;;;;3.92;2.42;;;16.10;1.00;;;;;;4804301;29;20069;-39
2022/12/10 03:50:13;;;;;;;3.05;2.42;;;16.10;1.00;;;;;;4804323;29;20293;-37
2022/12/10 03:52:40;;;;;;;3.33;2.10;;;16.20;1.00;;;;;;4804206;29;20058;-35
2022/12/10 03:55:07;;;;;;;4.43;2.47;;;16.20;1.00;;;;;;4806335;29;20051;-37
2022/12/10 03:57:34;;;;;;;4.60;2.10;;;16.20;1.00;;;;;;4807594;29;20039;-32
2022/12/10 04:00:03;;;;;;;3.50;2.25;;;16.30;1.00;;;;;;4807425;29;20122;-36
2022/12/10 04:02:38;;;;;;;5.35;2.00;;;16.30;1.00;;;;;;4807302;29;20139;-34
2022/12/10 04:05:06;;;;;;;3.22;2.33;;;16.30;1.00;;;;;;4807700;29;20484;-37
2022/12/10 04:07:35;;;;;;;3.85;2.22;;;16.30;1.00;;;;;;4807458;29;20054;-35
2022/12/10 04:10:03;;;;;;;3.58;2.40;;;16.30;1.00;;;;;;4807368;29;20123;-36
2022/12/10 04:12:30;;;;;;;3.33;2.10;;;16.30;1.00;;;;;;4807225;29;20066;-36
2022/12/10 04:17:42;;;;;;;4.22;2.35;;;16.20;1.00;;;;;;4807337;29;20146;-32
2022/12/10 04:26:51;;;;;;;3.60;2.20;;;16.20;1.00;;;;;;4807231;29;20085;-35
2022/12/10 04:28:28;;;;;;;3.55;2.60;;;16.20;1.00;;;;;;4807075;29;20132;-35
2022/12/10 04:30:55;;;;;;;5.65;3.05;;;16.20;1.00;;;;;;4817254;24;20054;-44
2022/12/10 04:33:22;;;;;;;6.13;3.20;;;16.10;1.00;;;;;;4805743;29;20053;-45
2022/12/10 04:35:49;;;;;;;5.18;2.83;;;16.10;1.00;;;;;;4806191;29;20565;-44
2022/12/10 04:38:15;;;;;;;4.05;2.75;;;16.10;1.00;;;;;;4806879;29;20057;-44
2022/12/10 04:40:42;;;;;;;5.13;2.67;;;16.10;1.00;;;;;;4808288;29;20078;-47
2022/12/10 04:43:09;;;;;;;4.50;3.22;;;16.00;1.00;;;;;;4816128;29;20559;-49
2022/12/10 04:45:36;;;;;;;4.00;2.90;;;16.00;1.00;;;;;;4815520;29;20134;-46
2022/12/10 04:48:05;;;;;;;4.00;2.58;;;16.00;1.00;;;;;;4823214;29;20050;-45
2022/12/10 04:50:32;;;;;;;4.28;2.60;;;16.00;1.00;;;;;;4802259;29;20057;-45
2022/12/10 04:52:59;;;;;;;4.78;2.75;;;15.90;1.00;;;;;;4816926;29;20050;-44
2022/12/10 04:55:25;;;;;;;6.07;2.95;;;15.90;1.00;;;;;;4824858;29;20051;-44
2022/12/10 04:57:52;;;;;;;4.25;2.60;;;15.90;1.00;;;;;;4824634;29;20530;-45
2022/12/10 05:00:19;;;;;;;4.22;2.55;;;15.80;1.00;;;;;;4824865;29;20129;-46
2022/12/10 05:02:48;;;;;;;4.25;2.80;;;15.80;1.00;;;;;;4824302;29;20137;-44
2022/12/10 05:05:15;;;;;;;4.50;3.05;;;15.80;1.00;;;;;;4824654;29;20412;-45
2022/12/10 05:07:42;;;;;;;5.07;2.85;;;15.80;1.00;;;;;;4824096;29;20042;-44
2022/12/10 05:10:09;;;;;;;4.65;2.85;;;15.70;1.00;;;;;;4824503;29;20074;-44
2022/12/10 05:12:36;;;;;;;4.05;2.72;;;15.70;1.00;;;;;;4824338;29;20379;-44
2022/12/10 05:15:03;;;;;;;3.67;2.63;;;15.70;1.00;;;;;;4824435;29;20046;-44
2022/12/10 05:17:30;;;;;;;4.00;2.92;;;15.70;1.00;;;;;;4808562;29;20517;-44
2022/12/10 05:19:57;;;;;;;5.05;3.35;;;15.60;1.00;;;;;;4824394;29;20050;-44
2022/12/10 05:25:09;;;;;;;5.90;3.53;;;15.60;1.00;;;;;;4824389;29;20052;-44
2022/12/10 05:27:36;;;;;;;7.45;3.38;;;15.60;1.00;;;;;;4824193;29;20518;-44
2022/12/10 05:30:03;;;;;;;6.72;3.88;;;15.60;1.00;;;;;;4807731;29;20495;-44
2022/12/10 05:32:30;;;;;;;5.70;2.97;;;15.60;1.00;;;;;;4824039;29;20054;-45
2022/12/10 05:34:56;;;;;;;5.35;3.33;;;15.60;1.00;;;;;;4824069;29;20044;-46
2022/12/10 05:37:23;;;;;;;4.55;2.92;;;15.70;1.00;;;;;;4824091;29;20513;-44
2022/12/10 05:39:50;;;;;;;4.45;3.05;;;15.80;1.00;;;;;;4824025;29;20117;-44
2022/12/10 05:42:17;;;;;;;5.55;3.13;;;15.80;1.00;;;;;;4823850;29;20054;-44
2022/12/10 05:44:43;;;;;;;5.40;3.45;;;15.90;1.00;;;;;;4824018;29;20057;-46
2022/12/10 05:47:11;;;;;;;4.05;2.88;;;16.00;1.00;;;;;;4824089;29;20095;-44
2022/12/10 05:49:37;;;;;;;4.97;3.35;;;16.10;1.00;;;;;;4807644;29;20045;-44
2022/12/10 05:52:04;;;;;;;4.90;3.22;;;16.20;1.00;;;;;;4807536;29;20532;-45
2022/12/10 05:54:31;;;;;;;4.43;2.70;;;16.20;1.00;;;;;;4823724;29;20043;-48
2022/12/10 05:56:58;;;;;;;5.13;3.10;;;16.30;1.00;;;;;;4823838;29;20050;-44
2022/12/10 05:59:24;;;;;;;4.72;2.95;;;16.40;1.00;;;;;;4823785;29;20511;-46
2022/12/10 06:01:51;;;;;;;4.35;3.10;;;16.40;1.00;;;;;;4823900;29;20136;-45
2022/12/10 06:04:18;;;;;;;4.47;3.17;;;16.50;1.00;;;;;;4823510;29;20133;-45
2022/12/10 06:06:46;;;;;;;5.07;3.63;;;16.50;1.00;;;;;;4823630;29;20046;-44
2022/12/10 06:09:13;;;;;;;4.90;3.42;;;16.50;1.00;;;;;;4823641;29;20099;-45
2022/12/10 06:11:40;;;;;;;5.32;3.33;;;16.60;1.00;;;;;;4807170;29;20058;-44
2022/12/10 06:14:08;;;;;;;5.88;2.92;;;16.60;1.00;;;;;;4823375;29;20125;-44
2022/12/10 06:16:34;;;;;;;5.07;2.92;;;16.60;1.00;;;;;;4823647;29;20141;-45
2022/12/10 06:19:01;;;;;;;4.40;2.95;;;16.60;1.00;;;;;;4822889;29;20074;-48
2022/12/10 06:21:28;;;;;;;5.30;3.47;;;16.60;1.00;;;;;;4823470;29;20554;-44
2022/12/10 06:23:55;;;;;;;4.63;3.17;;;16.60;1.00;;;;;;4823082;29;20114;-48
2022/12/10 06:26:24;;;;;;;4.45;3.22;;;16.50;1.00;;;;;;4823342;29;20051;-45
2022/12/10 06:28:51;;;;;;;4.82;3.50;;;16.50;1.00;;;;;;4823473;29;20125;-48
2022/12/10 06:31:18;;;;;;;5.28;3.42;;;16.50;1.00;;;;;;4823275;29;20070;-44
2022/12/10 06:33:45;;;;;;;4.63;3.40;;;16.50;1.00;;;;;;4823104;29;20051;-44
2022/12/10 06:36:14;;;;;;;4.85;3.25;;;16.50;1.00;;;;;;4823311;29;20054;-46
2022/12/10 06:38:42;;;;;;;4.22;3.55;;;16.40;1.00;;;;;;4823315;29;20422;-45
2022/12/10 06:41:11;;;;;;;7.13;3.67;;;16.40;1.00;;;;;;4823188;29;20046;-44
2022/12/10 06:43:38;;;;;;;4.57;2.97;;;16.40;1.00;;;;;;4822925;29;20038;-46
2022/12/10 06:46:14;;;;;;;5.10;3.17;;;16.40;1.00;;;;;;4823101;29;20053;-46
2022/12/10 06:48:41;;;;;;;5.50;3.58;;;16.30;1.00;;;;;;4823225;29;20056;-44
2022/12/10 06:51:11;;;;;;;4.40;3.13;;;16.30;1.00;;;;;;4823014;29;20480;-45
2022/12/10 06:53:40;;;;;;;4.70;3.40;;;16.30;1.00;;;;;;4822881;29;20050;-45
2022/12/10 06:56:07;;;;;;;5.38;3.00;;;16.20;1.00;;;;;;4823066;29;20125;-44
2022/12/10 06:58:35;;;;;;;4.95;3.25;;;16.20;1.00;;;;;;4823058;29;20130;-45
2022/12/10 07:01:07;;;;;;;5.13;3.58;;;16.20;1.00;;;;;;4822946;29;20117;-44
2022/12/10 07:03:34;;;;;;;4.63;2.88;;;16.10;1.00;;;;;;4822655;29;20049;-46
2022/12/10 07:06:02;;;;;;;5.35;3.92;;;16.10;1.00;;;;;;4822997;29;20054;-44
2022/12/10 07:08:30;;;;;;;5.45;3.47;;;16.10;1.00;;;;;;4822871;29;20054;-44
2022/12/10 07:10:57;;;;;;;5.13;3.15;;;16.00;1.00;;;;;;4806525;29;20070;-45
2022/12/10 07:13:24;;;;;;;4.57;2.90;;;16.00;1.00;;;;;;4806139;29;20590;-45
2022/12/10 07:15:56;;;;;;;5.50;3.03;;;16.00;1.00;;;;;;4822861;29;20077;-46
2022/12/10 07:18:24;;;;;;;5.85;3.40;;;15.90;1.00;;;;;;4823037;29;20054;-44
2022/12/10 07:20:51;;;;;;;6.53;3.28;;;15.90;1.00;;;;;;4822782;29;20046;-44
2022/12/10 07:23:18;;;;;;;4.47;3.20;;;15.90;1.00;;;;;;4822553;29;20047;-46
2022/12/10 07:25:45;;;;;;;6.07;3.80;;;15.80;1.00;;;;;;4822766;29;20387;-44
2022/12/10 07:28:12;;;;;;;4.88;3.03;;;15.90;1.00;;;;;;4822754;29;20092;-46
2022/12/10 07:30:39;;;;;;;5.03;3.50;;;15.90;1.00;;;;;;4825175;29;20073;-45
2022/12/10 07:33:05;;;;;;;4.32;3.17;;;15.90;1.00;;;;;;4825755;29;20443;-44
2022/12/10 07:35:32;;;;;;;5.72;3.13;;;16.00;1.00;;;;;;4825408;29;20457;-44
2022/12/10 07:37:59;;;;;;;4.85;3.10;;;16.10;1.00;;;;;;4820807;29;20061;-44
2022/12/10 07:40:26;;;;;;;5.60;3.45;;;16.10;1.00;;;;;;4822259;29;20526;-45
2022/12/10 07:42:52;;;;;;;7.80;2.72;;;16.20;1.00;;;;;;4817291;29;20050;-46
2022/12/10 07:45:19;;;;;;;3.70;2.45;;;16.30;1.00;;;;;;4808813;29;20126;-45
2022/12/10 07:47:46;;;;;;;7.68;3.47;;;16.40;1.00;;;;;;4816229;29;20034;-44
2022/12/10 07:50:13;;;;;;;5.78;3.13;;;16.40;1.00;;;;;;4825960;29;20042;-44
2022/12/10 07:52:40;;;;;;;4.72;3.10;;;16.50;1.00;;;;;;4825292;29;20076;-44
2022/12/10 07:55:07;;;;;;;4.20;2.58;;;16.50;1.00;;;;;;4817832;29;20089;-45
2022/12/10 07:57:34;;;;;;;6.25;4.53;;;16.60;1.00;;;;;;4813165;29;20047;-45
2022/12/10 08:00:02;;;;;;;14.25;2.72;;;16.60;1.00;;;;;;4812163;29;20051;-44
2022/12/10 08:02:37;;;;;;;12.60;3.33;;;16.70;1.00;;;;;;4812122;29;20469;-46
2022/12/10 08:05:04;;;;;;;6.30;3.55;;;16.70;1.00;;;;;;4808782;29;20055;-44
2022/12/10 08:07:32;;;;;;;6.88;3.80;;;16.60;1.00;;;;;;4817816;29;20042;-44
2022/12/10 08:09:59;;;;;;;6.03;3.28;;;16.60;1.00;;;;;;4825293;29;20117;-43
2022/12/10 08:12:26;;;;;;;7.85;3.38;;;16.60;1.00;;;;;;4825307;29;20046;-44
2022/12/10 08:14:52;;;;;;;15.52;4.35;;;16.60;1.00;;;;;;4825374;29;20042;-44
2022/12/10 08:17:19;;;;;;;7.47;3.50;;;16.60;1.00;;;;;;4809207;29;20125;-44
2022/12/10 08:19:46;;;;;;;6.35;3.75;;;16.60;1.00;;;;;;4825467;29;20050;-44
2022/12/10 08:22:14;;;;;;;6.57;3.88;;;16.50;1.00;;;;;;4825090;29;20051;-44
2022/12/10 08:24:41;;;;;;;6.43;3.30;;;16.50;1.00;;;;;;4825041;29;20106;-44
2022/12/10 08:27:07;;;;;;;5.07;3.60;;;16.50;1.00;;;;;;4825216;29;20084;-45
2022/12/10 08:29:34;;;;;;;5.88;3.35;;;16.50;1.00;;;;;;4814857;29;20047;-44
2022/12/10 08:32:01;;;;;;;6.47;3.08;;;16.40;1.00;;;;;;4814424;29;20038;-45
2022/12/10 08:34:28;;;;;;;4.50;3.35;;;16.40;1.00;;;;;;4813681;29;20058;-44
2022/12/10 08:36:54;;;;;;;8.45;4.13;;;16.40;1.00;;;;;;4807542;29;20495;-44
2022/12/10 08:39:21;;;;;;;7.63;3.58;;;16.30;1.00;;;;;;4819290;29;20070;-45
2022/12/10 08:41:48;;;;;;;5.95;3.55;;;16.30;1.00;;;;;;4808227;29;20054;-45
2022/12/10 08:44:15;;;;;;;8.88;3.53;;;16.30;1.00;;;;;;4803868;29;20177;-43
2022/12/10 08:46:41;;;;;;;7.10;4.32;;;16.20;1.00;;;;;;4810011;29;20519;-44
2022/12/10 08:49:08;;;;;;;8.60;4.15;;;16.20;1.00;;;;;;4816182;29;20061;-44
2022/12/10 08:51:35;;;;;;;6.38;3.80;;;16.20;1.00;;;;;;4810054;29;20130;-44
2022/12/10 08:54:02;;;;;;;6.95;3.78;;;16.20;1.00;;;;;;4810339;29;20054;-44
2022/12/10 08:56:29;;;;;;;8.00;4.68;;;16.10;1.00;;;;;;4814101;29;20043;-43
2022/12/10 08:58:56;;;;;;;7.20;4.55;;;16.10;1.00;;;;;;4805811;29;20058;-44
2022/12/10 09:01:23;;;;;;;9.05;4.38;;;16.10;1.00;;;;;;4816867;29;20133;-44
2022/12/10 09:03:50;;;;;;;6.80;4.13;;;16.00;1.00;;;;;;4816791;29;20542;-45
2022/12/10 09:06:23;;;;;;;5.95;3.75;;;16.00;1.00;;;;;;4811062;29;20640;-44
2022/12/10 09:08:52;;;;;;;6.03;4.18;;;16.00;1.00;;;;;;4814916;29;20038;-44
2022/12/10 09:11:31;;;;;;;12.60;3.90;;;15.90;1.00;;;;;;4800153;29;20419;-44
2022/12/10 09:13:58;;;;;;;5.88;4.13;;;15.90;1.00;;;;;;4810114;29;20039;-44
2022/12/10 09:16:29;;;;;;;7.90;4.00;;;15.90;1.00;;;;;;4824414;29;20494;-44
2022/12/10 09:18:56;;;;;;;7.05;4.47;;;15.90;1.00;;;;;;4803567;29;20054;-43
2022/12/10 09:21:23;;;;;;;5.93;3.22;;;16.00;1.00;;;;;;4815260;29;20066;-44
2022/12/10 09:23:51;;;;;;;6.38;3.50;;;16.00;1.00;;;;;;4819444;29;20061;-44
2022/12/10 09:26:18;;;;;;;7.30;4.05;;;16.10;1.00;;;;;;4811710;29;20526;-43
2022/12/10 09:28:46;;;;;;;5.15;3.65;;;16.20;1.00;;;;;;4812868;29;20043;-43
2022/12/10 09:31:15;;;;;;;4.88;2.83;;;16.30;1.00;;;;;;4805825;29;20050;-43
2022/12/10 09:33:48;;;;;;;5.43;3.23;;;16.40;1.00;;;;;;4805798;29;20077;-43
2022/12/10 09:36:14;;;;;;;7.85;3.45;;;16.40;1.00;;;;;;4805778;29;20449;-43
2022/12/10 09:38:43;;;;;;;6.13;3.70;;;16.50;1.00;;;;;;4804080;29;20057;-44
2022/12/10 09:41:10;;;;;;;7.75;3.72;;;16.60;1.00;;;;;;4815502;29;20051;-43
2022/12/10 09:43:52;;;;;;;7.63;3.45;;;16.70;1.00;;;;;;4812940;29;20487;-44
2022/12/10 09:46:23;;;;;;;7.53;3.47;;;16.80;1.00;;;;;;4787765;30;20079;-44
2022/12/10 09:48:57;;;;;;;5.40;3.30;;;16.80;1.00;;;;;;4790099;29;20134;-44
2022/12/10 09:51:29;;;;;;;6.03;3.78;;;16.90;1.00;;;;;;4812994;29;20046;-44
2022/12/10 09:53:58;;;;;;;5.38;3.13;;;17.00;1.00;;;;;;4812664;29;20407;-43
2022/12/10 09:56:39;;;;;;;6.78;3.15;;;17.10;1.00;;;;;;4805546;29;20039;-44
2022/12/10 09:59:44;;;;;;;5.53;3.40;;;17.20;1.00;;;;;;4805551;29;20125;-44
2022/12/10 10:02:21;;;;;;;6.75;3.47;;;17.30;1.00;;;;;;4794543;29;20427;-45
2022/12/10 10:04:54;;;;;;;6.28;3.55;;;17.30;1.00;;;;;;4808993;29;20047;-43
2022/12/10 10:07:26;;;;;;;6.70;3.85;;;17.40;1.00;;;;;;4813519;29;20129;-45
2022/12/10 10:10:04;;;;;;;6.25;3.22;;;17.40;1.00;;;;;;4810925;29;20459;-44
2022/12/10 10:12:33;;;;;;;7.25;3.58;;;17.60;1.00;;;;;;4813923;29;20046;-44
2022/12/10 10:15:25;;;;;;;5.20;3.30;;;17.60;1.00;;;;;;4812278;29;20095;-45
2022/12/10 10:17:55;;;;;;;5.18;3.15;;;17.60;1.00;;;;;;4815775;29;20043;-45
2022/12/10 10:20:22;;;;;;;6.25;3.55;;;17.70;1.00;;;;;;4816524;29;20065;-44
2022/12/10 10:22:50;;;;;;;5.60;4.07;;;17.70;1.00;;;;;;4814665;29;20043;-44
2022/12/10 10:25:19;;;;;;;5.55;3.08;;;17.80;1.00;;;;;;4816377;29;20053;-44
2022/12/10 10:27:45;;;;;;;4.65;2.67;;;17.90;1.00;;;;;;4810570;29;20043;-47
2022/12/10 10:30:20;;;;;;;5.50;3.35;;;17.90;1.00;;;;;;4810108;29;20046;-44
2022/12/10 10:32:54;;;;;;;6.47;2.88;;;17.90;1.00;;;;;;4812286;29;20046;-45
2022/12/10 10:35:33;;;;;;;5.45;2.88;;;17.90;1.00;;;;;;4790300;29;20039;-45
2022/12/10 10:38:07;;;;;;;6.50;4.22;;;17.90;1.00;;;;;;4812307;29;20042;-45
2022/12/10 10:40:42;;;;;;;6.13;3.30;;;17.90;1.00;;;;;;4812460;29;20121;-44
2022/12/10 10:43:25;;;;;;;5.43;3.60;;;17.90;1.00;;;;;;4822135;29;20042;-45
2022/12/10 10:46:10;;;;;;;10.17;3.47;;;17.90;1.00;;;;;;4813474;29;20125;-46
2022/12/10 10:48:37;;;;;;;6.38;3.45;;;17.80;1.00;;;;;;4808736;29;20074;-45
2022/12/10 10:51:15;;;;;;;5.90;3.13;;;17.80;1.00;;;;;;4813657;29;20051;-46
2022/12/10 10:53:45;;;;;;;6.43;3.10;;;17.70;1.00;;;;;;4815220;29;20039;-45
2022/12/10 10:56:29;;;;;;;6.90;3.75;;;17.70;1.00;;;;;;4823115;29;20046;-45
2022/12/10 10:59:03;;;;;;;6.70;3.88;;;17.70;1.00;;;;;;4823048;29;20513;-46
2022/12/10 11:01:49;;;;;;;12.35;7.00;;;17.60;1.00;;;;;;4823031;29;20128;-46
2022/12/10 11:04:28;;;;;;;12.13;5.93;;;17.60;1.00;;;;;;4823728;29;20151;-45
2022/12/10 11:06:59;;;;;;;10.18;5.18;;;17.50;1.00;;;;;;4829060;29;20121;-45
2022/12/10 11:09:29;;;;;;;9.25;4.55;;;17.40;1.00;;;;;;4828872;29;20046;-47
2022/12/10 11:12:02;;;;;;;8.80;4.85;;;17.40;1.00;;;;;;4828856;29;20043;-45
2022/12/10 11:14:38;;;;;;;9.07;5.28;;;17.30;1.00;;;;;;4828695;29;20060;-44
2022/12/10 11:17:14;;;;;;;7.88;4.32;;;17.30;1.00;;;;;;4819372;29;20104;-44
2022/12/10 11:20:03;;;;;;;11.13;4.53;;;17.20;1.00;;;;;;4814690;29;20050;-44
2022/12/10 11:22:32;;;;;;;10.40;4.35;;;17.20;1.00;;;;;;4792446;30;20044;-46
2022/12/10 11:25:00;;;;;;;6.82;4.10;;;17.20;1.00;;;;;;4815372;29;20042;-48
2022/12/10 11:27:36;;;;;;;8.98;4.63;;;17.10;1.00;;;;;;4822306;29;20046;-43
2022/12/10 11:30:06;;;;;;;7.30;4.43;;;17.10;1.00;;;;;;4818033;29;20133;-43
2022/12/10 11:32:41;;;;;;;9.23;5.38;;;17.00;1.00;;;;;;4810259;29;20121;-45
2022/12/10 11:35:19;;;;;;;7.18;4.10;;;16.90;1.00;;;;;;4810091;29;20088;-45
2022/12/10 11:38:04;;;;;;;6.88;4.00;;;16.90;1.00;;;;;;4817247;29;20053;-44
2022/12/10 11:40:46;;;;;;;6.75;4.50;;;16.80;1.00;;;;;;4818314;29;20395;-44
2022/12/10 11:43:16;;;;;;;10.80;3.97;;;16.80;1.00;;;;;;4818848;29;20046;-45
2022/12/10 11:46:05;;;;;;;9.38;4.80;;;16.70;1.00;;;;;;4820956;29;20038;-44
2022/12/10 11:48:38;;;;;;;8.97;4.70;;;16.70;1.00;;;;;;4828326;29;20535;-44
2022/12/10 11:51:32;;;;;;;7.15;3.53;;;16.60;1.00;;;;;;4812665;29;20039;-46
2022/12/10 11:54:20;;;;;;;6.72;4.07;;;16.60;1.00;;;;;;4814213;29;20070;-44
2022/12/10 11:56:57;;;;;;;6.30;3.85;;;16.70;1.00;;;;;;4819260;29;20103;-45
2022/12/10 11:59:41;;;;;;;8.05;4.40;;;16.70;1.00;;;;;;4813980;29;20099;-44
2022/12/10 12:02:34;;;;;;;6.60;3.75;;;16.80;1.00;;;;;;4809327;29;20083;-45
2022/12/10 12:05:43;;;;;;;6.43;3.60;;;16.80;1.00;;;;;;4814729;29;20046;-46
2022/12/10 12:08:39;;;;;;;4.53;2.88;;;16.90;1.00;;;;;;4818428;29;20046;-45
2022/12/10 12:11:37;;;;;;;4.70;2.78;;;17.00;1.00;;;;;;4825206;29;20058;-45
2022/12/10 12:14:34;;;;;;;7.50;3.70;;;17.10;1.00;;;;;;4814917;29;20039;-45
2022/12/10 12:17:10;;;;;;;4.35;3.10;;;17.10;1.00;;;;;;4816737;29;20119;-47
2022/12/10 12:19:42;;;;;;;10.93;2.83;;;17.20;1.00;;;;;;4819558;29;20056;-45
2022/12/10 12:22:25;;;;;;;5.45;3.60;;;17.30;1.00;;;;;;4813920;29;20071;-45
2022/12/10 12:24:59;;;;;;;5.25;3.25;;;17.30;1.00;;;;;;4816305;29;20482;-44
2022/12/10 12:27:36;;;;;;;6.25;3.38;;;17.40;1.00;;;;;;4814503;29;20138;-44
2022/12/10 12:30:18;;;;;;;4.82;3.13;;;17.50;1.00;;;;;;4819758;29;20554;-45
2022/12/10 12:33:00;;;;;;;9.18;3.70;;;17.50;1.00;;;;;;4820894;29;20074;-43
2022/12/10 12:35:46;;;;;;;11.05;3.10;;;17.50;1.00;;;;;;4825200;29;20125;-41
2022/12/10 12:38:31;;;;;;;6.45;2.88;;;17.50;1.00;;;;;;4824117;29;20061;-41
2022/12/10 12:41:00;;;;;;;5.70;2.97;;;17.60;1.00;;;;;;4814910;29;20050;-41
2022/12/10 12:43:36;;;;;;;6.25;3.40;;;17.60;1.00;;;;;;4824730;29;20073;-41
2022/12/10 12:46:09;;;;;;;9.35;3.05;;;17.60;1.00;;;;;;4825049;29;20388;-41
2022/12/10 12:48:58;;;;;;;8.43;3.15;;;17.60;1.00;;;;;;4824948;29;20082;-43
2022/12/10 12:51:40;;;;;;;9.75;4.50;;;17.60;1.00;;;;;;4824721;29;20414;-42
2022/12/10 12:54:10;;;;;;;8.07;3.88;;;17.50;1.00;;;;;;4824566;29;20050;-42
2022/12/10 12:57:05;;;;;;;9.43;4.35;;;17.50;1.00;;;;;;4809591;29;20493;-42
2022/12/10 12:59:42;;;;;;;9.57;5.07;;;17.40;1.00;;;;;;4813270;29;20104;-42
2022/12/10 13:02:24;;;;;;;8.13;4.03;;;17.40;1.00;;;;;;4808261;29;20049;-43
2022/12/10 13:04:52;;;;;;;12.55;4.80;;;17.40;1.00;;;;;;4803241;29;20043;-43
2022/12/10 13:07:19;;;;;;;13.00;4.63;;;17.30;1.00;;;;;;4806061;29;20053;-43
2022/12/10 13:09:49;;;;;;;7.93;4.25;;;17.30;1.00;;;;;;4808407;29;20043;-42
2022/12/10 13:12:16;;;;;;;8.27;4.38;;;17.30;1.00;;;;;;4816455;29;20062;-43
2022/12/10 13:14:48;;;;;;;8.25;4.50;;;17.20;1.00;;;;;;4824575;29;20054;-45
2022/12/10 13:17:24;;;;;;;7.28;4.32;;;17.20;1.00;;;;;;4813986;29;20048;-42
2022/12/10 13:19:51;;;;;;;7.45;4.25;;;17.20;1.00;;;;;;4814921;29;20155;-43
2022/12/10 13:22:37;;;;;;;8.80;4.22;;;17.10;1.00;;;;;;4810732;29;20054;-42
2022/12/10 13:25:17;;;;;;;11.70;5.00;;;17.10;1.00;;;;;;4817130;29;20050;-44
2022/12/10 13:28:30;;;;;;;7.85;4.88;;;17.10;1.00;;;;;;4813885;29;20119;-42
2022/12/10 13:31:15;;;;;;;9.02;4.40;;;17.00;1.00;;;;;;4812387;29;20121;-43